Terminal Aerodrome Forecast
Issued by NWS Lake Charles, LA

Current Version | Previous Version | Text Only | Print | Product List | Glossary On
Versions: 1 2 3 4 5 6 7 8 9 10 11 12 13
000
FTUS44 KLCH 292300
TAFAEX
TAF
KAEX 292320Z 3000/3024 15005KT P6SM VCSH SCT025 OVC100
      TEMPO 3000/3004 4SM -SHRA BR BKN025
     FM300400 13005KT 4SM -SHRA BKN025
     FM301800 17008KT P6SM VCSH BKN025 PROB30 3018/3024 4SM -SHRA=

USA.gov is the U.S. government's official web portal to all federal, state and local government web resources and services.